This is the latest recevied weather packets stored in our database for station/object WY1B. If no packets are shown the sender has not sent any weather packets the latest 10 day(s).
| Time | Temp. | Humidity | Pressure | Rain* | Wind** | Luminosity | Snow |
|---|---|---|---|---|---|---|---|
| 1787960468 | 43.89° C | 18% | 1001.8 hPa | 0 mm | - | 364 W/m² | - |
| 1787960168 | 43.89° C | 18% | 1001.5 hPa | 0 mm | - | 377 W/m² | - |
| 1787959863 | 42.78° C | 18% | 1001.7 hPa | 0 mm | - | 399 W/m² | - |
| 1787959558 | 41.11° C | 19% | 1001.7 hPa | 13.72 mm | - | 420 W/m² | - |
| 1787959258 | 35.56° C | 23% | 1001.9 hPa | 18.54 mm | - | 440 W/m² | - |
| 1787958952 | 36.67° C | 25% | 1002 hPa | 8.89 mm | - | 0 W/m² | - |
| 1787958648 | 43.89° C | 18% | 1001.9 hPa | 8.89 mm | - | 1 W/m² | - |
| 1787958343 | 43.89° C | 17% | 1002 hPa | 0 mm | - | 53 W/m² | - |
| 1787958039 | 44.44° C | 17% | 1001.9 hPa | 0 mm | - | 54 W/m² | - |
| 1787957737 | 44.44° C | 17% | 1002 hPa | 0 mm | - | 55 W/m² | - |
| 1787957433 | 43.89° C | 17% | 1002.4 hPa | 0 mm | - | 57 W/m² | - |
| 1787957132 | 43.89° C | 18% | 1002.3 hPa | 0 mm | - | 59 W/m² | - |
| 1787956832 | 43.89° C | 17% | 1002.3 hPa | 0 mm | - | 61 W/m² | - |
| 1787956527 | 43.89° C | 17% | 1002.5 hPa | 0 mm | - | 62 W/m² | - |
| 1787956222 | 44.44° C | 17% | 1002.5 hPa | 0 mm | - | 64 W/m² | - |
| 1787955922 | 45° C | 17% | 1002.6 hPa | 0 mm | - | 64 W/m² | - |
| 1787955618 | 45° C | 16% | 1002.7 hPa | 0 mm | - | 64 W/m² | - |
| 1787955314 | 46.67° C | 16% | 1002.8 hPa | 0 mm | - | 65 W/m² | - |
| 1787955012 | 46.67° C | 15% | 1003 hPa | 0 mm | - | 520 W/m² | - |
| 1787954708 | 47.22° C | 15% | 1002.9 hPa | 0 mm | - | 509 W/m² | - |
| 1787954403 | 47.78° C | 16% | 1003 hPa | 0 mm | - | 537 W/m² | - |
| 1787954098 | 47.22° C | 16% | 1003.2 hPa | 0 mm | - | 583 W/m² | - |
| 1787953797 | 47.78° C | 16% | 1003.3 hPa | 0 mm | - | 583 W/m² | - |
| 1787953492 | 47.22° C | 16% | 1003.5 hPa | 0 mm | - | 603 W/m² | - |
| 1787953191 | 46.67° C | 16% | 1003.4 hPa | 0 mm | - | 622 W/m² | - |
* Rain latest hour (hover to see other rain measurements)
** Current wind speed in m/s (hover to see current wind gust speed)